Time,TemperatureF,DewpointF,PressureIn,WindDirection,WindDirectionDegrees,WindSpeedMPH,WindSpeedGustMPH,Humidity,HourlyPrecipIn,Conditions,Clouds,dailyrainin,SolarRadiationWatts/m^2,SoftwareType,DateUTC
2013-04-27 00:32:00,71.0,41.0,-100.00,ENE,72,1.0,2.0,34,-99.99,,,0.00,0.000000,,2013-04-27 07:32:00,
2013-04-27 00:42:00,71.0,41.0,-100.00,ENE,72,1.0,2.0,34,-99.99,,,0.00,0.000000,,2013-04-27 07:42:00,
2013-04-27 00:52:00,71.0,41.0,-100.00,ENE,72,1.0,2.0,34,-99.99,,,0.00,0.000000,,2013-04-27 07:52:00,
2013-04-27 01:01:00,71.0,41.0,-100.00,ENE,72,1.0,2.0,34,-99.99,,,0.00,0.000000,,2013-04-27 08:01:00,
2013-04-27 01:33:00,69.0,41.0,-100.00,SE,134,0.0,4.0,36,0.00,,,0.00,0.000000,,2013-04-27 08:33:00,
2013-04-27 01:42:00,69.0,41.0,-100.00,SE,134,0.0,4.0,36,0.00,,,0.00,0.000000,,2013-04-27 08:42:00,
2013-04-27 01:52:00,69.0,41.0,-100.00,SE,134,0.0,4.0,36,0.00,,,0.00,0.000000,,2013-04-27 08:52:00,
2013-04-27 02:01:00,69.0,41.0,-100.00,SE,134,0.0,4.0,36,0.00,,,0.00,0.000000,,2013-04-27 09:01:00,
2013-04-27 02:33:00,69.0,42.0,-100.00,ESE,113,1.0,3.0,37,0.00,,,-99.99,0.000000,,2013-04-27 09:33:00,
2013-04-27 02:43:00,69.0,42.0,-100.00,ESE,113,1.0,3.0,37,0.00,,,-99.99,0.000000,,2013-04-27 09:43:00,
2013-04-27 02:53:00,69.0,42.0,-100.00,ESE,113,1.0,3.0,37,0.00,,,-99.99,0.000000,,2013-04-27 09:53:00,
2013-04-27 03:02:00,69.0,42.0,-100.00,ESE,113,1.0,3.0,37,0.00,,,-99.99,0.000000,,2013-04-27 10:02:00,
2013-04-27 03:33:00,66.0,41.0,-100.00,ESE,111,0.0,4.0,40,0.00,,,0.00,0.000000,,2013-04-27 10:33:00,
2013-04-27 03:42:00,66.0,41.0,-100.00,ESE,111,0.0,4.0,40,0.00,,,0.00,0.000000,,2013-04-27 10:42:00,
2013-04-27 03:52:00,66.0,41.0,-100.00,ESE,111,0.0,4.0,40,0.00,,,0.00,0.000000,,2013-04-27 10:52:00,
2013-04-27 04:02:00,66.0,41.0,-100.00,ESE,111,0.0,4.0,40,0.00,,,0.00,0.000000,,2013-04-27 11:02:00,
2013-04-27 04:42:00,64.0,42.0,-100.00,SE,138,0.0,4.0,44,0.00,,,0.00,0.000000,,2013-04-27 11:42:00,
2013-04-27 04:52:00,64.0,42.0,-100.00,SE,138,0.0,4.0,44,0.00,,,0.00,0.000000,,2013-04-27 11:52:00,
2013-04-27 05:01:00,64.0,42.0,-100.00,SE,138,0.0,4.0,44,0.00,,,0.00,0.000000,,2013-04-27 12:01:00,
2013-04-27 05:32:00,61.0,41.0,-100.00,ESE,123,0.0,1.0,47,0.00,,,0.00,0.000000,,2013-04-27 12:32:00,
2013-04-27 05:42:00,61.0,41.0,-100.00,ESE,123,0.0,1.0,47,0.00,,,0.00,0.000000,,2013-04-27 12:42:00,
2013-04-27 05:52:00,61.0,41.0,-100.00,ESE,123,0.0,1.0,47,0.00,,,0.00,0.000000,,2013-04-27 12:52:00,
2013-04-27 06:01:00,61.0,41.0,-100.00,ESE,123,0.0,1.0,47,0.00,,,0.00,0.000000,,2013-04-27 13:01:00,
2013-04-27 06:42:00,61.0,40.0,-100.00,NE,41,0.0,2.0,45,0.00,,,-99.99,0.000000,,2013-04-27 13:42:00,
2013-04-27 06:52:00,61.0,40.0,-100.00,NE,41,0.0,2.0,45,0.00,,,-99.99,0.000000,,2013-04-27 13:52:00,
2013-04-27 07:02:00,61.0,40.0,-100.00,NE,41,0.0,2.0,45,0.00,,,-99.99,0.000000,,2013-04-27 14:02:00,
2013-04-27 07:32:00,60.0,32.0,-100.00,ESE,119,0.0,4.0,35,0.00,,,-99.99,2.000000,,2013-04-27 14:32:00,
2013-04-27 08:33:00,67.0,31.0,-100.00,ESE,122,0.0,4.0,26,-99.99,,,0.00,119.000000,,2013-04-27 15:33:00,
2013-04-27 09:33:00,75.0,27.0,-100.00,NNE,14,1.0,3.0,17,-99.99,,,0.00,374.000000,,2013-04-27 16:33:00,
2013-04-27 10:32:00,88.0,27.0,-100.00,WNW,285,2.0,3.0,11,-99.99,,,-99.99,648.000000,,2013-04-27 17:32:00,
2013-04-27 11:32:00,94.0,27.0,-100.00,South,178,2.0,5.0,9,0.00,,,0.00,860.000000,,2013-04-27 18:32:00,
2013-04-27 12:42:00,97.0,23.0,-100.00,East,86,3.0,7.0,7,0.00,,,0.00,1092.000000,,2013-04-27 19:42:00,
2013-04-27 12:53:00,97.0,23.0,-100.00,East,86,3.0,7.0,7,0.00,,,0.00,1092.000000,,2013-04-27 19:53:00,
2013-04-27 13:42:00,100.0,17.0,-100.00,West,277,6.0,11.0,5,0.00,,,0.00,1210.000000,,2013-04-27 20:42:00,
2013-04-27 13:52:00,100.0,17.0,-100.00,West,277,6.0,11.0,5,0.00,,,0.00,1210.000000,,2013-04-27 20:52:00,
2013-04-27 14:43:00,99.0,11.0,-100.00,WSW,241,4.0,14.0,4,0.00,,,0.00,1254.000000,,2013-04-27 21:43:00,
2013-04-27 14:53:00,99.0,11.0,-100.00,WSW,241,4.0,14.0,4,0.00,,,0.00,1254.000000,,2013-04-27 21:53:00,
2013-04-27 15:32:00,101.0,13.0,-100.00,WNW,292,7.0,20.0,4,0.00,,,0.00,1215.000000,,2013-04-27 22:32:00,
2013-04-27 16:32:00,101.0,18.0,-100.00,West,261,3.0,19.0,5,0.00,,,0.00,1097.000000,,2013-04-27 23:32:00,
2013-04-27 18:32:00,99.0,-4.0,-100.00,North,349,7.0,19.0,2,-99.99,,,0.00,651.000000,,2013-04-28 01:32:00,
2013-04-27 19:32:00,100.0,-3.0,-100.00,NNE,14,3.0,18.0,2,0.00,,,0.00,338.000000,,2013-04-28 02:32:00,
2013-04-27 20:43:00,93.0,12.0,-100.00,West,266,2.0,15.0,5,-99.99,,,0.00,53.000000,,2013-04-28 03:43:00,
2013-04-27 20:53:00,93.0,12.0,-100.00,West,266,2.0,15.0,5,-99.99,,,0.00,53.000000,,2013-04-28 03:53:00,
2013-04-27 21:32:00,90.0,21.0,-100.00,WSW,255,3.0,4.0,8,-99.99,,,0.00,2.000000,,2013-04-28 04:32:00,
2013-04-27 22:32:00,85.0,22.0,-100.00,SSE,161,0.0,6.0,10,-99.99,,,0.00,0.000000,,2013-04-28 05:32:00,
2013-04-27 23:32:00,78.0,19.0,-100.00,West,262,0.0,5.0,11,-99.99,,,-99.99,0.000000,,2013-04-28 06:32:00,